首页
METAR-TAF:

METAR-TAF

机场 :

威奇托, 堪薩斯州, 美国

纬度: 37-38-50N, 经度: 097-25-46W, 海拔: 406米

当前天气观测

该预报发布于39分钟前的20:17 UTC
风速21节,风向西转西北,有时为31节阵风
温度 26°C
湿度 24%
气压 993 hPa
能見度: 16.1公里
散云层高于12000英尺
多云层高于19000英尺
多云层高于25000英尺

METAR: KICT 272017Z 30021G31KT 10SM SCT120 BKN190 BKN250 26/04 A2933 RMK AO2 PK WND 31031/2015 WSHFT 2000 T02560039

时间: 14:56 (20:56 UTC)

预报

该预报发布于9分钟前的20:47 UTC
预报有效从27日的 21点(UTC)到 28日的 18点(UTC)
风速27节,风向西北,有时为38节阵风
能見度: 10公里
多云层高于6000英尺
从 28日的 1200点(UTC)
风速15节,风向北转西北
能見度: 10公里
少量云层高于25000英尺

TAF: KICT 272047Z 2721/2818 32027G38KT P6SM BKN060 FM281200 34015KT P6SM FEW250

超过4000个机场的气象观测和天气预报(METAR&TAF报告)。

可查询的气象台以黄色和红色小点在地图上表示。

将鼠标移到小点上方,可查看气象台名称。

然后点击查看天气观测和预报。

如需切换地图:点击带黑十字的绿色按钮放大地图;点击带横线的绿色按钮缩小地图;或者点击绿色箭头查看邻近地区的地图。


METAR-TAF: